Weather at Longs Farm Airport [CLOSED]

Public forecast

Using degrees Fahrenheit for public forecast. Weather courtesy of forecast.io.

Closest aviation weather report (METAR) to Longs Farm Airport

Closest report is Pleasanton Municipal Airport, 9.2 nm (17.0 km) SSW.

2024/07/14 17:35 (retrieved 30 minutes ago)

KPEZ 141735Z AUTO 20012G18KT 10SM CLR 31/22 A3017 RMK AO2 T03100221

Closest aviation forecast (TAF) to Longs Farm Airport

Closest forecast is Stinson Municipal Airport, 14.3 nm (26.5 km) N.

2024/07/14 18:22 (retrieved 0 seconds ago)

TAF KSSF 141720Z 1418/1518 16007KT P6SM SCT040 BKN150 FM150800 17007KT P6SM SCT015 BKN070